KNRB/NRB METAR and TAF weather

Enter ICAO airport designator
Station Type Date Time Source
KNRB METAR 2020/01/21 17:52 UTC NOAA

KNRB 211752Z 01015KT 10SM SCT035 07/M02 A3029 RMK AO2 SLP258 T00721022 10078 20044 58004 $


Station Type Date Time Source
KNRB Decoded METAR 2020/01/21 17:52 UTC NOAA

MAYPORT NAVAL AIR FACILITY, FL, United States (KNRB) 30-24N 81-25W 4M
Jan 21, 2020 - 12:52 PM EST / 2020.01.21 1752 UTC
Wind: from the N (010 degrees) at 17 MPH (15 KT):0
Visibility: 10 mile(s):0
Sky conditions: partly cloudy
Temperature: 45.0 F (7.2 C)
Dew Point: 28.0 F (-2.2 C)
Relative Humidity: 51%
Pressure (altimeter): 30.29 in. Hg (1025 hPa)
Pressure tendency: 0.01 inches (0.4 hPa) lower than three hours ago
ob: KNRB 211752Z 01015KT 10SM SCT035 07/M02 A3029 RMK AO2 SLP258 T00721022 10078 20044 58004
cycle: 18

Station Type Date Time Source
KNRB TAF 2020/01/21 15:07 UTC NOAA

TAF KNRB 2115/2215 35015G25KT 9999 FEW035 QNH3028INS
FM211800 36018G25KT 9999 SCT035 QNH3024INS
FM212100 01020G25KT 9999 SCT040 QNH3026INS
FM220600 03020G30KT 9999 SCT035 SCT250 QNH3022INS T09/2121Z T02/2210Z FN20021

Example: see airport list